Nearby METAR Reports

 

CYUL - Montreal/Dorval, Quebec, Canada
Distance from station: ENE 6km
Updated: 08/08/2020 01:00 EDT
Few Clouds
Few Clouds
 Wind from calm
Wind: Calm
Temperature: 19°C
Dew Point: 15°C
Humidity: 78%
Barometer: 1020.7 hPa
Clouds: Few Clouds
Visibility: 24 km
Cloud details: Few Clouds 4572 m
2020/08/08 05:00 CYUL 080500Z 00000KT 15SM FEW150 19/15 A3014 RMK AC1 AC TR SLP207 DENSITY ALT 400FT
CWVQ - Ste Anne De Bell, Quebec, Canada
Distance from station: WSW 10km
Updated: 08/08/2020 01:00 EDT

 Wind from calm
Wind: Calm
Temperature: 17°C
Dew Point: 16°C
Humidity: 94%
2020/08/08 05:00 CWVQ 080500Z AUTO 00000KT 17/16 RMK AO1 SLP208 T01660161 53003
 
CWTA - Mc Tavish (aut), Quebec, Canada
Distance from station: ENE 18km
Updated: 08/08/2020 01:00 EDT

 Wind from W
Wind: W 4 km/h
Temperature: 20°C
Dew Point: 14°C
Humidity: 69%
2020/08/08 05:00 CWTA 080500Z AUTO 26002KT 20/14 RMK AO1 SLP207 T02030136 53002
CYMX - Montreal/Mirabel, Quebec, Canada
Distance from station: NW 29km
Updated: 08/08/2020 01:00 EDT
Clear
Clear
 Wind from NNW
Wind: NNW 4 km/h
Temperature: 15°C
Dew Point: 14°C
Humidity: 94%
Barometer: 1021 hPa
Clouds: Clear
Visibility: 40 km
2020/08/08 05:00 CYMX 080500Z 34002KT 25SM SKC 15/14 A3015 RMK SLP212
 
CYHU - Saint Hubert Arp, Quebec, Canada
Distance from station: ENE 31km
Updated: 08/08/2020 01:00 EDT
Clear
Clear
 Wind from calm
Wind: Calm
Temperature: 16°C
Dew Point: 14°C
Humidity: 88%
Barometer: 1020.7 hPa
Clouds: Clear
Visibility: 14 km
2020/08/08 05:00 CYHU 080500Z AUTO 00000KT 9SM CLR 16/14 A3014 RMK SLP208
CWIT - St Clothilde (a, Quebec, Canada
Distance from station: SSE 33km
Updated: 08/08/2020 01:00 EDT

 Wind from calm
Wind: Calm
Temperature: 14°C
Dew Point: 13°C
Humidity: 94%
2020/08/08 05:00 CWIT 080500Z AUTO 00000KT 14/13 RMK AO1 SLP205 T01370132 53003
 
CWIZ - L'acadie, Quebec, Canada
Distance from station: ESE 41km
Updated: 08/08/2020 01:00 EDT

 Wind from calm
Wind: Calm
Temperature: 15°C
Dew Point: 15°C
Humidity: 100%
2020/08/08 05:00 CWIZ 080500Z AUTO 00000KT 15/15 RMK AO1 T01450151
CWHM - Varennes, Quebec, Canada
Distance from station: NE 45km
Updated: 10/25/2016 10:00 EDT
NOT Current

 Wind from W
Wind: W 19 km/h, Gust: 28 km/h
Temperature: 4°C
Wind Chill: 0°C
Dew Point: -2°C
Humidity: 65%
2016/10/25 14:00 CWHM 251400Z AUTO 28010G15KT 04/M02 RMK AO1 PK WND 28018/1302 T00391017
 
CWEW - L'assomption, Quebec, Canada
Distance from station: NE 50km
Updated: 08/08/2020 01:00 EDT

 Wind from N
Wind: N 4 km/h
Temperature: 15°C
Dew Point: 15°C
Humidity: 100%
2020/08/08 05:00 CWEW 080500Z AUTO 35002KT 15/15 RMK AO1 SLP215 T01530146 53004
CWBZ - St Anicet, Quebec, Canada
Distance from station: SW 52km
Updated: 08/08/2020 01:00 EDT

 Wind from calm
Wind: Calm
Temperature: 14°C
Dew Point: 13°C
Humidity: 94%
2020/08/08 05:00 CWBZ 080500Z AUTO 00000KT 14/13 RMK AO1 SLP202 T01350134 52004
 
KFSO - Highgate, Vermont, USA
Distance from station: SE 79km
Updated: 08/08/2020 00:55 EDT
Clear
Clear
 Wind from calm
Wind: Calm
Temperature: 18°C
Dew Point: 16°C
Humidity: 88%
Barometer: 1021 hPa
Clouds: Clear
Visibility: 16 km
2020/08/08 04:55 KFSO 080455Z AUTO 00000KT 10SM CLR 18/16 A3015 RMK AO2 T01770160 402820130
CMGB - Granby, Quebec, Canada
Distance from station: E 81km
Updated: 08/08/2020 01:00 EDT

 Wind from N
Wind: N 2 km/h
Temperature: 17°C
2020/08/08 05:00 CMGB 080500Z AUTO 35001KT 17/ RMK AO1 SLP207 T0167 51003
 
CWJT - St Jovite (autob, Quebec, Canada
Distance from station: NW 88km
Updated: 08/08/2020 01:00 EDT

 Wind from NE
Wind: NE 2 km/h
Temperature: 14°C
Dew Point: 13°C
Humidity: 94%
2020/08/08 05:00 CWJT 080500Z AUTO 05001KT 14/13 RMK AO1 SLP211 T01420131 50005
CWFQ - Frelighsburg, Quebec, Canada
Distance from station: ESE 90km
Updated: 08/08/2020 01:00 EDT

 Wind from E
Wind: E 6 km/h
Temperature: 18°C
Dew Point: 15°C
Humidity: 83%
2020/08/08 05:00 CWFQ 080500Z AUTO 08003KT 18/15 RMK AO1 SLP211 T01770146 53002
 
KPBG - Plattsburgh Afb, New York, USA
Distance from station: SSE 93km
Updated: 08/08/2020 00:53 EDT
Clear
Clear
 Wind from calm
Wind: Calm
Temperature: 16°C
Dew Point: 15°C
Humidity: 94%
Barometer: 1020.7 hPa
Clouds: Clear
Visibility: 16 km
2020/08/08 04:53 KPBG 080453Z AUTO 00000KT 10SM CLR 16/15 A3014 RMK AO2 SLP207 T01560150 402670111
KMSS - Massena, New York, USA
Distance from station: SW 100km
Updated: 08/08/2020 00:53 EDT
Clear
Clear
 Wind from calm
Wind: Calm
Temperature: 15°C
Dew Point: 14°C
Humidity: 94%
Barometer: 1021.3 hPa
Clouds: Clear
Visibility: 16 km
2020/08/08 04:53 KMSS 080453Z AUTO 00000KT 10SM CLR 15/14 A3016 RMK AO2 SLP212 T01500139 402720106
 
CWBS - Lac St Pierre (a, Quebec, Canada
Distance from station: NE 106km
Updated: 11/05/2019 18:00 EST
NOT Current

 Wind from SE
Wind: SE 9 km/h
Temperature: 6°C
Wind Chill: 4°C
Dew Point: 0°C
Humidity: 66%
2019/11/05 23:00 CWBS 052300Z AUTO 14005KT 06/M00 RMK AO1 T00551002
KBTV - Burlington, Vermont, USA
Distance from station: SSE 121km
Updated: 08/08/2020 00:54 EDT
Clear
Clear
 Wind from E
Wind: E 6 km/h
Temperature: 18°C
Dew Point: 14°C
Humidity: 78%
Barometer: 1021 hPa
Clouds: Clear
Visibility: 16 km
2020/08/08 04:54 KBTV 080454Z AUTO 09003KT 10SM CLR 18/14 A3015 RMK AO2 SLP209 T01830144 402780144
 
KSLK - Saranac Lake, New York, USA
Distance from station: SSW 121km
Updated: 08/08/2020 00:51 EDT
Clear
Clear
 Wind from calm
Wind: Calm
Temperature: 11°C
Dew Point: 9°C
Humidity: 88%
Barometer: 1022.4 hPa
Clouds: Clear
Visibility: 16 km
2020/08/08 04:51 KSLK 080451Z AUTO 00000KT 10SM CLR 11/09 A3019 RMK AO2 SLP220 T01060094 402500050
CWNQ - Nicolet (autob), Quebec, Canada
Distance from station: NE 123km
Updated: 08/08/2020 01:00 EDT

 Wind from ESE
Wind: ESE 2 km/h
Temperature: 15°C
Dew Point: 14°C
Humidity: 94%
2020/08/08 05:00 CWNQ 080500Z AUTO 11001KT 15/14 RMK AO1 SLP208 T01470139 53003
 
KMWN - Mount Washington, New Hampshire, USA
Distance from station: SE 237km
Updated: 08/08/2020 00:54 EDT
Mostly cloudy
Mostly cloudy
 Wind from W
Wind: W 20 km/h
Temperature: 10°C
Wind Chill: 7°C
Dew Point: 6°C
Humidity: 76%
Clouds: Mostly cloudy
Visibility: 128 km
Cloud details: Few Clouds 152 m
Partly cloudy 610 m
Partly cloudy 1219 m
Partly cloudy 1829 m
Mostly cloudy 3048 m
Mostly cloudy 4572 m
2020/08/08 04:54 KMWN 080454Z 28011KT 80SM FEW005 SCT020 SCT040 SCT060 BKN100 BKN150 10/06 RMK 401430057
CYVR - Vancouver Intl A, British Columbia, Canada
Distance from station: NW 3676km
Updated: 08/08/2020 01:00 EDT
Light rain, Overcast
Light rain, Overcast
 Wind from ENE
Wind: ENE 9 km/h
Temperature: 15°C
Dew Point: 13°C
Humidity: 88%
Barometer: 1021 hPa
Summary: Light rain
Clouds: Overcast
Visibility: 24 km
Cloud details: Mostly cloudy 1219 m
Overcast 1554 m
2020/08/08 05:00 CYVR 080500Z 07005KT 15SM -RA BKN040 OVC051 15/13 A3015 RMK SC6SC2 SLP212